Time;durP1;ratioP1;P1;durP2;ratioP2;P2;SDS_P1;SDS_P2;PMS_P1;PMS_P2;Temp;Humidity;BMP_temperature;BMP_pressure;BME280_temperature;BME280_humidity;BME280_pressure;Samples;Min_cycle;Max_cycle;Signal;HPM_P1;HPM_P2
2021/11/17 02:28:12;;;;;;;7.03;5.70;;;;;;;18.95;27.72;94928.09;5053999;28;20439;-50
2021/11/17 02:31:05;;;;;;;7.30;6.20;;;;;;;17.95;29.34;94928.09;5062472;28;20056;-49
2021/11/17 02:33:35;;;;;;;;;;;;;;;17.56;29.89;94930.72;5046129;28;20387;-50
2021/11/17 02:36:21;;;;;;;9.50;6.95;;;;;;;18.29;28.75;94927.94;5093760;28;19916;-56
2021/11/17 02:39:08;;;;;;;8.73;7.20;;;;;;;18.25;28.89;94926.25;5093777;28;20066;-49
2021/11/17 02:41:47;;;;;;;8.02;7.18;;;;;;;18.59;27.83;94927.91;5064627;28;20079;-57
2021/11/17 02:44:49;;;;;;;8.20;7.40;;;;;;;17.73;29.54;94937.88;5058439;28;20048;-56
2021/11/17 02:47:22;;;;;;;8.93;7.45;;;;;;;18.30;28.70;94934.78;5042224;28;20359;-49
2021/11/17 02:50:18;;;;;;;7.90;7.10;;;;;;;19.47;26.79;94937.44;5059770;28;20063;-51
2021/11/17 02:52:54;;;;;;;7.90;7.03;;;;;;;19.26;27.27;94937.50;5073865;28;20055;-56
2021/11/17 02:55:40;;;;;;;8.68;7.68;;;;;;;18.58;28.07;94939.59;5079445;28;20048;-56
2021/11/17 02:58:46;;;;;;;7.70;6.90;;;;;;;19.69;26.33;94945.78;5093100;28;20052;-53
2021/11/17 03:01:34;;;;;;;8.27;7.25;;;;;;;18.57;28.02;94932.75;5079459;28;20514;-50
2021/11/17 03:04:33;;;;;;;8.40;7.53;;;;;;;18.59;28.08;94935.84;5077184;28;20471;-55
2021/11/17 03:07:22;;;;;;;8.95;7.32;;;;;;;18.89;27.44;94940.00;5058725;28;20056;-49
2021/11/17 03:10:08;;;;;;;11.20;7.78;;;;;;;19.60;26.60;94937.19;5056758;28;20391;-57
2021/11/17 03:12:41;;;;;;;10.35;8.52;;;;;;;18.49;28.18;94937.78;5061023;28;20049;-57
2021/11/17 03:15:26;;;;;;;9.50;7.90;;;;;;;18.03;29.02;94935.25;5074311;28;20055;-57
2021/11/17 03:18:21;;;;;;;8.73;7.82;;;;;;;18.60;28.10;94930.22;5055610;28;20053;-51
2021/11/17 03:21:16;;;;;;;9.35;7.82;;;;;;;19.39;26.89;94931.13;5055008;28;20052;-60
2021/11/17 03:24:09;;;;;;;8.68;7.88;;;;;;;19.04;27.34;94928.81;5061029;28;20049;-56
2021/11/17 03:26:48;;;;;;;8.77;7.88;;;;;;;18.83;27.62;94924.63;5077085;28;20048;-56
2021/11/17 03:29:47;;;;;;;8.80;7.90;;;;;;;18.92;27.38;94928.75;5065389;28;20041;-49
2021/11/17 03:32:29;;;;;;;8.73;7.85;;;;;;;17.93;28.92;94920.50;5034455;28;20051;-48
2021/11/17 03:35:02;;;;;;;9.00;8.10;;;;;;;18.86;27.88;94927.41;5076805;28;20494;-50
2021/11/17 03:37:48;;;;;;;11.00;9.02;;;;;;;18.04;28.96;94926.22;5077322;28;20059;-52
2021/11/17 03:40:15;;;;;;;10.73;8.23;;;;;;;18.70;28.10;94910.53;5076800;28;20044;-59
2021/11/17 03:43:05;;;;;;;8.48;7.68;;;;;;;18.22;28.88;94917.09;5076572;28;20059;-58
2021/11/17 03:46:08;;;;;;;9.07;7.13;;;;;;;17.92;29.73;94918.16;5075702;28;20044;-59
2021/11/17 03:49:10;;;;;;;8.93;7.28;;;;;;;18.36;29.28;94916.84;5049446;28;20401;-50
2021/11/17 03:51:54;;;;;;;8.57;7.68;;;;;;;18.57;28.64;94916.84;5072764;28;20056;-52
2021/11/17 03:54:26;;;;;;;8.32;7.50;;;;;;;17.92;30.17;94907.59;5076511;28;20041;-50
2021/11/17 03:57:00;;;;;;;8.77;7.88;;;;;;;18.18;29.67;94911.66;5066172;28;20045;-52
2021/11/17 03:59:36;;;;;;;11.02;8.80;;;;;;;17.55;30.75;94915.97;5056221;28;20049;-56
2021/11/17 04:02:28;;;;;;;9.07;8.05;;;;;;;17.75;30.36;94914.53;5069553;28;20055;-57
2021/11/17 04:05:11;;;;;;;10.13;8.10;;;;;;;17.76;30.25;94908.13;5076435;28;20052;-51
2021/11/17 04:07:50;;;;;;;11.07;8.07;;;;;;;19.62;27.49;94927.00;5076751;28;20055;-50
2021/11/17 04:10:42;;;;;;;9.32;7.63;;;;;;;18.74;28.36;94914.13;5056067;28;20052;-52
2021/11/17 04:13:36;;;;;;;8.85;8.00;;;;;;;18.09;29.42;94920.75;5056422;28;20037;-49
2021/11/17 04:16:27;;;;;;;8.90;8.00;;;;;;;18.34;28.69;94909.22;5076012;28;20484;-52
2021/11/17 04:19:13;;;;;;;8.27;7.47;;;;;;;18.45;28.74;94915.69;5079643;28;20044;-50
2021/11/17 04:21:57;;;;;;;9.23;8.38;;;;;;;18.41;28.63;94914.78;5065072;28;20048;-50
2021/11/17 04:24:33;;;;;;;9.45;8.43;;;;;;;18.14;29.10;94915.25;5076151;28;20671;-51
2021/11/17 04:27:34;;;;;;;10.18;9.18;;;;;;;17.66;29.94;94916.38;5093485;28;20051;-52
2021/11/17 04:30:13;;;;;;;9.55;8.63;;;;;;;17.94;29.68;94916.75;5038030;28;20052;-51
2021/11/17 04:32:55;;;;;;;9.63;8.63;;;;;;;18.13;29.33;94913.72;5073090;28;20040;-51
2021/11/17 04:35:35;;;;;;;9.93;8.93;;;;;;;19.15;27.82;94909.84;5075923;28;20473;-51
2021/11/17 04:38:12;;;;;;;9.65;8.65;;;;;;;19.55;26.64;94913.53;5056040;28;20049;-51
2021/11/17 04:41:02;;;;;;;10.77;9.63;;;;;;;18.92;27.92;94904.91;5055063;28;20056;-51
2021/11/17 04:43:46;;;;;;;10.70;9.57;;;;;;;18.35;28.75;94908.13;5047828;28;20048;-51
2021/11/17 04:46:34;;;;;;;10.50;9.40;;;;;;;18.32;28.85;94911.41;5086039;28;20040;-55
2021/11/17 04:49:16;;;;;;;11.05;9.95;;;;;;;18.23;29.39;94923.16;5077032;28;20056;-55
2021/11/17 04:52:02;;;;;;;11.83;9.93;;;;;;;17.83;29.85;94907.63;5062885;28;20055;-50
2021/11/17 04:54:32;;;;;;;11.40;10.25;;;;;;;17.64;30.03;94915.91;5058013;28;20380;-50
2021/11/17 04:57:23;;;;;;;12.05;10.73;;;;;;;18.15;29.61;94924.75;5094573;28;20055;-48
2021/11/17 05:00:09;;;;;;;11.15;9.95;;;;;;;17.66;29.98;94910.31;5095678;28;20405;-50
2021/11/17 05:02:48;;;;;;;13.32;11.15;;;;;;;17.83;29.88;94921.63;5079253;28;20040;-53
2021/11/17 05:05:32;;;;;;;12.48;11.25;;;;;;;17.46;30.56;94927.66;5075290;28;20207;-53
2021/11/17 05:08:09;;;;;;;11.25;10.15;;;;;;;17.83;30.12;94926.94;5075457;28;20098;-49
2021/11/17 05:11:03;;;;;;;12.00;10.50;;;;;;;17.93;29.87;94933.72;5075175;28;20044;-51
2021/11/17 05:13:33;;;;;;;14.55;10.95;;;;;;;17.74;29.98;94931.47;5075385;28;20044;-50
2021/11/17 05:16:26;;;;;;;12.00;10.32;;;;;;;18.04;29.58;94932.28;5074501;28;20332;-52
2021/11/17 05:19:24;;;;;;;11.35;8.63;;;;;;;18.93;28.23;94927.66;5057037;28;20049;-67
2021/11/17 05:22:09;;;;;;;10.52;9.48;;;;;;;19.51;27.38;94925.84;5068149;28;20044;-50
2021/11/17 05:24:55;;;;;;;10.48;9.18;;;;;;;18.88;28.24;94927.84;5069654;28;20596;-54
2021/11/17 05:27:49;;;;;;;11.73;10.52;;;;;;;18.63;28.71;94936.78;5074157;28;20695;-50
2021/11/17 05:30:29;;;;;;;11.38;9.30;;;;;;;19.51;27.56;94931.13;5073348;28;20048;-51
2021/11/17 05:33:17;;;;;;;10.65;9.55;;;;;;;19.57;27.11;94935.19;5072445;28;20056;-49
2021/11/17 05:36:05;;;;;;;12.43;10.45;;;;;;;18.85;28.57;94936.44;5075110;28;20351;-52
2021/11/17 05:39:26;;;;;;;12.10;10.60;;;;;;;18.84;28.71;94947.38;5092023;28;20795;-59
2021/11/17 05:42:24;;;;;;;13.80;10.45;;;;;;;19.19;28.20;94953.16;5002506;28;20054;-50
2021/11/17 05:44:54;;;;;;;11.90;9.90;;;;;;;18.68;28.97;94949.81;5038165;28;20352;-46
2021/11/17 05:47:27;;;;;;;14.00;10.00;;;;;;;18.93;28.80;94946.19;5095009;28;20059;-54
2021/11/17 05:50:28;;;;;;;10.77;9.52;;;;;;;18.69;29.42;94951.38;5061821;28;20472;-48
2021/11/17 05:53:16;;;;;;;12.65;9.63;;;;;;;18.48;29.63;94952.13;5070775;28;20048;-50
2021/11/17 05:55:52;;;;;;;10.60;9.50;;;;;;;18.18;30.20;94958.50;5068966;28;20052;-55
2021/11/17 05:58:50;;;;;;;11.73;9.65;;;;;;;18.23;30.21;94954.91;5054734;28;20048;-63
2021/11/17 06:01:32;;;;;;;11.75;8.95;;;;;;;17.74;30.74;94960.56;5057210;28;20368;-61
2021/11/17 06:04:00;;;;;;;11.38;9.10;;;;;;;18.12;30.41;94959.78;5073408;28;20045;-66
2021/11/17 06:06:27;;;;;;;10.35;9.25;;;;;;;18.52;29.38;94956.78;5074418;28;20087;-61
2021/11/17 06:08:54;;;;;;;12.00;9.75;;;;;;;17.84;30.38;94949.63;5074424;28;20055;-62
2021/11/17 06:11:27;;;;;;;13.98;9.63;;;;;;;18.93;28.53;94946.19;5069187;28;20048;-56
2021/11/17 06:13:56;;;;;;;13.73;10.02;;;;;;;17.83;30.21;94957.88;5057520;28;20052;-55
2021/11/17 06:16:23;;;;;;;11.60;9.60;;;;;;;18.84;28.54;94969.34;5059957;28;20048;-54
2021/11/17 06:18:53;;;;;;;12.13;10.82;;;;;;;17.87;30.08;94964.88;5078509;28;20040;-53
2021/11/17 06:21:21;;;;;;;12.02;10.43;;;;;;;17.92;30.26;94966.56;5052381;28;20063;-57
2021/11/17 06:23:54;;;;;;;12.25;10.95;;;;;;;17.91;30.14;94977.44;5071518;28;20052;-57
2021/11/17 06:26:25;;;;;;;12.60;11.30;;;;;;;17.44;30.94;94978.19;5073982;28;20044;-58
2021/11/17 06:28:54;;;;;;;17.02;12.23;;;;;;;17.47;30.59;94977.56;5088090;28;20489;-60
2021/11/17 06:31:22;;;;;;;13.55;11.70;;;;;;;17.98;29.46;94980.41;5083575;28;20052;-67
2021/11/17 06:33:49;;;;;;;12.43;11.13;;;;;;;18.65;27.81;94983.00;5051724;28;20049;-60
2021/11/17 06:36:19;;;;;;;13.75;12.32;;;;;;;18.44;28.37;94988.25;5073432;28;20044;-55
2021/11/17 06:38:47;;;;;;;13.32;11.93;;;;;;;18.93;27.66;94980.63;5059986;28;20045;-59
2021/11/17 06:41:15;;;;;;;14.38;11.50;;;;;;;18.58;28.09;94987.25;5054917;28;20048;-58
2021/11/17 06:43:42;;;;;;;12.00;10.80;;;;;;;18.96;27.34;94982.63;5086505;28;20068;-58
2021/11/17 06:46:09;;;;;;;13.13;10.95;;;;;;;18.58;27.54;94989.91;5053975;28;20056;-60
2021/11/17 06:48:37;;;;;;;11.93;10.45;;;;;;;19.46;26.47;94984.38;5050324;28;20044;-61
2021/11/17 06:51:04;;;;;;;11.15;10.05;;;;;;;18.37;27.81;94982.69;5073971;28;20064;-55
2021/11/17 06:53:31;;;;;;;11.23;10.02;;;;;;;18.71;27.19;94989.66;5073797;28;20041;-63
2021/11/17 06:55:59;;;;;;;10.85;9.75;;;;;;;20.71;23.88;94983.88;5063599;28;20171;-62
2021/11/17 06:58:26;;;;;;;12.75;10.10;;;;;;;19.52;25.79;94977.78;5052663;28;20360;-64
2021/11/17 07:00:55;;;;;;;11.32;10.23;;;;;;;18.62;27.06;95004.84;5053652;28;20045;-56
2021/11/17 07:03:24;;;;;;;11.82;10.15;;;;;;;19.56;25.81;94989.31;5071832;28;20036;-56
2021/11/17 07:05:51;;;;;;;11.38;10.18;;;;;;;19.98;25.00;94981.97;5070938;28;20457;-64
2021/11/17 07:08:18;;;;;;;11.32;9.95;;;;;;;20.75;24.22;94983.97;5053871;28;20063;-61
2021/11/17 07:10:45;;;;;;;17.80;10.48;;;;;;;20.33;24.60;94989.53;5053577;28;20048;-56
2021/11/17 07:13:13;;;;;;;15.95;10.38;;;;;;;19.05;26.30;94986.00;5067335;28;20569;-64
2021/11/17 07:15:41;;;;;;;11.70;10.50;;;;;;;19.29;26.15;94984.56;5076760;28;20052;-57
2021/11/17 07:18:08;;;;;;;11.13;9.98;;;;;;;19.53;25.98;94982.03;5090014;28;20055;-58
2021/11/17 07:20:38;;;;;;;11.18;10.07;;;;;;;18.88;26.63;94986.13;5053339;28;20053;-58
2021/11/17 07:23:06;;;;;;;11.57;10.05;;;;;;;18.23;28.02;94987.44;5052729;28;20045;-57
2021/11/17 07:25:33;;;;;;;10.98;9.82;;;;;;;18.44;27.59;94993.53;5055385;28;20068;-59
2021/11/17 07:28:01;;;;;;;11.63;10.40;;;;;;;19.33;26.33;94990.75;5052057;28;20048;-59
2021/11/17 07:30:33;;;;;;;12.98;10.85;;;;;;;19.10;26.57;94988.44;5053221;28;20048;-59
2021/11/17 07:33:02;;;;;;;11.17;9.37;;;;;;;19.10;26.57;94999.06;5067837;28;20051;-54
2021/11/17 07:35:35;;;;;;;13.77;10.80;;;;;;;18.66;27.33;94997.03;5073348;28;20286;-56
2021/11/17 07:38:05;;;;;;;11.02;9.77;;;;;;;18.32;28.17;94998.75;5061292;28;20045;-55
2021/11/17 07:40:35;;;;;;;11.40;9.70;;;;;;;19.35;26.41;95004.47;5053119;28;20049;-55
2021/11/17 07:43:14;;;;;;;11.70;10.45;;;;;;;18.98;27.18;95001.63;5058052;28;20045;-59
2021/11/17 07:45:43;;;;;;;11.32;10.23;;;;;;;19.97;25.84;94993.69;5063290;28;20051;-58
2021/11/17 07:48:11;;;;;;;16.42;11.27;;;;;;;18.66;27.78;94999.69;5058528;28;20049;-54
2021/11/17 07:50:40;;;;;;;11.63;10.43;;;;;;;18.02;28.80;94991.91;5068931;28;20052;-56
2021/11/17 07:53:08;;;;;;;12.30;11.10;;;;;;;18.73;27.89;95002.59;5071490;28;20048;-54
2021/11/17 07:55:42;;;;;;;10.98;9.88;;;;;;;18.81;27.25;94993.81;5075015;28;20040;-51
2021/11/17 07:58:09;;;;;;;12.32;10.35;;;;;;;18.66;27.72;95007.63;5058940;28;20051;-55
2021/11/17 08:00:40;;;;;;;11.45;10.25;;;;;;;20.30;25.10;95001.59;5071399;28;20044;-54
2021/11/17 08:03:09;;;;;;;11.52;10.18;;;;;;;19.58;26.09;94995.06;5067350;28;20059;-55
2021/11/17 08:05:36;;;;;;;11.30;10.20;;;;;;;19.36;26.75;94995.41;5078163;28;20044;-55
2021/11/17 08:08:04;;;;;;;12.30;10.10;;;;;;;19.07;27.09;94991.75;5062777;28;20467;-56
2021/11/17 08:10:36;;;;;;;12.18;10.68;;;;;;;18.92;27.37;94994.97;5038307;28;20052;-55
2021/11/17 08:13:03;;;;;;;11.65;10.18;;;;;;;19.36;26.53;94996.19;5046308;28;20435;-55
2021/11/17 08:15:30;;;;;;;13.15;10.05;;;;;;;18.58;27.99;95009.19;5076228;28;20044;-59
2021/11/17 08:17:57;;;;;;;12.13;10.25;;;;;;;18.35;28.57;94998.13;5068156;28;20056;-58
2021/11/17 08:20:24;;;;;;;11.88;10.13;;;;;;;19.70;25.97;95005.69;5070166;28;20049;-57
2021/11/17 08:22:53;;;;;;;11.57;10.48;;;;;;;19.89;26.07;95010.50;5060683;28;20056;-55
2021/11/17 08:25:23;;;;;;;11.13;9.98;;;;;;;19.07;27.13;95009.53;5081572;28;20467;-56
2021/11/17 08:27:51;;;;;;;11.40;10.30;;;;;;;18.61;28.07;95007.78;5068826;28;20059;-58
2021/11/17 08:30:20;;;;;;;11.30;10.23;;;;;;;19.20;26.85;95013.78;5056478;28;20045;-54
2021/11/17 08:32:47;;;;;;;11.70;10.50;;;;;;;19.22;27.15;95016.09;5058763;28;20048;-58
2021/11/17 08:35:18;;;;;;;11.70;10.50;;;;;;;20.19;25.47;95011.09;5070274;28;20037;-55
2021/11/17 08:37:47;;;;;;;12.10;10.90;;;;;;;18.39;28.24;95003.53;5056097;28;20041;-52
2021/11/17 08:40:18;;;;;;;14.57;10.15;;;;;;;19.17;26.99;95003.81;5055827;28;20049;-62
2021/11/17 08:42:46;;;;;;;10.85;9.60;;;;;;;18.61;27.45;95005.91;5058066;28;20056;-56
2021/11/17 08:45:14;;;;;;;10.88;9.82;;;;;;;18.84;27.34;95005.66;5069139;28;20053;-55
2021/11/17 08:47:42;;;;;;;14.85;13.15;;;;;;;18.64;27.46;95007.16;5055651;28;20439;-61
2021/11/17 08:50:12;;;;;;;13.48;12.07;;;;;;;18.57;27.72;95012.19;5065617;28;20048;-61
2021/11/17 08:52:39;;;;;;;10.77;9.52;;;;;;;19.39;26.47;95014.09;5075456;28;20040;-58
2021/11/17 08:55:08;;;;;;;12.05;10.85;;;;;;;18.89;27.02;95014.16;5067399;28;20045;-60
2021/11/17 08:57:35;;;;;;;10.90;9.88;;;;;;;19.24;26.59;95008.59;5073964;28;20048;-61
2021/11/17 09:00:05;;;;;;;14.45;12.98;;;;;;;19.40;26.20;95007.69;5054463;28;20041;-63
2021/11/17 09:02:33;;;;;;;16.48;10.77;;;;;;;19.06;26.81;95008.75;5055432;28;20051;-60
2021/11/17 09:05:01;;;;;;;11.27;9.65;;;;;;;19.68;25.78;95018.50;5077990;28;20052;-57
2021/11/17 09:07:28;;;;;;;11.07;10.05;;;;;;;19.21;26.37;95009.25;5095687;28;20114;-63
2021/11/17 09:09:56;;;;;;;10.95;9.63;;;;;;;18.35;27.59;95000.00;5095568;28;20047;-56
2021/11/17 09:12:23;;;;;;;11.05;10.05;;;;;;;18.89;26.59;95003.56;5068240;28;20059;-57
2021/11/17 09:14:50;;;;;;;11.27;10.18;;;;;;;20.07;25.10;94994.38;5074214;28;20048;-58
2021/11/17 09:17:17;;;;;;;10.65;9.65;;;;;;;18.25;27.55;94995.84;5077729;28;20047;-62
2021/11/17 09:19:44;;;;;;;11.13;9.98;;;;;;;18.86;26.97;94992.84;5064752;28;20076;-54
2021/11/17 09:22:11;;;;;;;10.52;9.52;;;;;;;18.93;26.42;94993.88;5054729;28;20057;-52
2021/11/17 09:24:38;;;;;;;10.68;9.57;;;;;;;19.96;25.07;94996.69;5070316;28;20048;-59
2021/11/17 09:27:05;;;;;;;9.98;9.02;;;;;;;20.88;23.84;94999.56;5069890;28;20045;-53
2021/11/17 09:29:33;;;;;;;10.90;9.80;;;;;;;19.49;25.89;94989.03;5054891;28;20052;-58
2021/11/17 09:32:01;;;;;;;11.32;9.93;;;;;;;19.26;26.60;95001.13;5055269;28;20049;-52
2021/11/17 09:34:28;;;;;;;11.20;10.15;;;;;;;20.17;25.43;94997.38;5069548;28;20048;-62
2021/11/17 09:36:56;;;;;;;11.05;9.77;;;;;;;20.25;25.05;95007.09;5093876;28;20052;-51
2021/11/17 09:39:23;;;;;;;12.13;9.90;;;;;;;20.13;25.42;94996.50;5095020;28;20630;-59
2021/11/17 09:41:54;;;;;;;10.57;9.68;;;;;;;19.45;26.42;94996.09;5094972;28;20047;-64
2021/11/17 09:44:28;;;;;;;14.93;10.27;;;;;;;18.93;27.62;94993.09;5080631;28;20047;-60
2021/11/17 09:46:57;;;;;;;11.38;10.38;;;;;;;18.46;28.23;94998.50;5054141;28;20040;-63
2021/11/17 09:49:24;;;;;;;15.00;9.93;;;;;;;18.66;27.95;94983.78;5053611;28;20056;-63
2021/11/17 09:51:58;;;;;;;11.30;10.07;;;;;;;18.15;29.06;94980.31;5059221;28;20067;-63
2021/11/17 09:54:43;;;;;;;10.10;9.10;;;;;;;19.66;26.54;94970.31;5059555;28;20044;-57
2021/11/17 09:57:15;;;;;;;10.80;9.35;;;;;;;19.53;26.82;94979.38;5068082;28;20055;-65
2021/11/17 09:59:52;;;;;;;10.55;9.55;;;;;;;19.33;27.13;94974.84;5061594;28;20041;-61
2021/11/17 10:02:19;;;;;;;10.60;9.60;;;;;;;19.41;26.92;94966.81;5055247;28;20055;-61
2021/11/17 10:05:04;;;;;;;10.15;9.07;;;;;;;18.97;27.58;94964.84;5064476;28;20049;-63
2021/11/17 10:10:36;;;;;;;9.55;8.65;;;;;;;18.58;28.35;94966.84;5066947;28;20041;-48
2021/11/17 10:13:48;;;;;;;10.48;9.38;;;;;;;18.77;27.91;94953.19;5055599;28;20060;-49
2021/11/17 10:16:15;;;;;;;10.27;9.27;;;;;;;18.63;28.21;94948.13;5082389;28;20055;-60
2021/11/17 10:18:46;;;;;;;9.68;8.70;;;;;;;18.68;28.08;94949.81;5080875;28;20048;-62
2021/11/17 10:21:21;;;;;;;9.75;8.75;;;;;;;18.29;28.61;94946.47;5054233;28;20056;-63
2021/11/17 10:24:03;;;;;;;25.15;21.33;;;;;;;19.49;26.84;94946.59;5063107;28;20057;-58
2021/11/17 10:26:45;;;;;;;10.50;8.82;;;;;;;19.13;27.17;94943.84;5059381;28;20060;-57
2021/11/17 10:29:28;;;;;;;11.63;8.75;;;;;;;19.00;27.83;94935.88;5054039;28;20049;-62
2021/11/17 10:32:04;;;;;;;9.57;8.68;;;;;;;19.22;27.34;94931.28;5054131;28;20080;-55
2021/11/17 10:34:47;;;;;;;10.25;9.15;;;;;;;19.36;27.45;94932.56;5067290;28;20040;-58
2021/11/17 10:37:29;;;;;;;15.40;13.43;;;;;;;19.31;27.24;94926.69;5054096;28;20056;-61
2021/11/17 10:39:57;;;;;;;21.92;19.58;;;;;;;18.69;28.43;94930.19;5054089;28;20041;-53
2021/11/17 10:42:32;;;;;;;16.35;14.60;;;;;;;18.81;28.24;94929.47;5053982;28;20059;-63
2021/11/17 10:45:19;;;;;;;11.80;9.77;;;;;;;19.63;27.22;94920.59;5069768;28;20056;-55
2021/11/17 10:47:48;;;;;;;9.27;8.23;;;;;;;21.29;24.25;94925.91;5052641;28;20060;-63
2021/11/17 10:50:18;;;;;;;8.60;7.70;;;;;;;19.76;26.22;94920.59;5064612;28;20459;-56
2021/11/17 10:52:54;;;;;;;9.65;7.55;;;;;;;20.03;26.09;94919.94;5062936;28;20052;-53
2021/11/17 10:55:32;;;;;;;9.50;8.57;;;;;;;20.48;25.56;94919.81;5073222;28;20040;-62
2021/11/17 10:58:00;;;;;;;8.75;7.85;;;;;;;19.24;27.13;94918.47;5093317;28;20048;-55
2021/11/17 11:00:44;;;;;;;8.65;7.57;;;;;;;19.04;27.40;94920.88;5069560;28;20041;-53
2021/11/17 11:03:14;;;;;;;8.95;7.50;;;;;;;20.10;26.07;94911.44;5055064;28;20052;-59
2021/11/17 11:06:08;;;;;;;8.45;7.63;;;;;;;20.40;25.77;94909.31;5070518;28;20045;-56
2021/11/17 11:08:48;;;;;;;9.00;7.35;;;;;;;19.99;26.23;94905.81;5045612;28;20048;-54
2021/11/17 11:11:16;;;;;;;7.97;7.18;;;;;;;19.76;26.32;94891.41;5036099;28;20053;-57
2021/11/17 11:13:45;;;;;;;9.10;8.07;;;;;;;20.32;25.90;94906.47;5043425;28;20048;-63
2021/11/17 11:16:17;;;;;;;7.97;7.18;;;;;;;20.14;25.69;94897.19;5064028;28;20045;-64
2021/11/17 11:19:08;;;;;;;7.80;7.10;;;;;;;21.24;24.33;94900.31;5076830;28;20056;-63
2021/11/17 11:21:41;;;;;;;8.90;7.30;;;;;;;20.60;25.05;94892.50;5074406;28;20059;-56
2021/11/17 11:24:13;;;;;;;8.25;7.47;;;;;;;20.54;25.03;94897.22;5077519;28;20040;-57
2021/11/17 11:26:59;;;;;;;8.48;7.05;;;;;;;21.61;23.87;94886.06;5075737;28;20056;-60
2021/11/17 11:29:33;;;;;;;7.30;6.55;;;;;;;20.87;24.73;94897.03;5057307;28;20063;-59
2021/11/17 11:32:32;;;;;;;9.82;6.90;;;;;;;21.12;24.46;94892.41;5063273;28;20045;-60
2021/11/17 11:34:59;;;;;;;7.53;6.60;;;;;;;21.09;24.13;94887.00;5047570;28;20041;-61
2021/11/17 11:37:26;;;;;;;9.05;6.78;;;;;;;20.36;25.29;94892.50;5092104;28;20043;-60
2021/11/17 11:39:58;;;;;;;9.38;6.85;;;;;;;20.81;24.93;94879.78;5096231;28;20043;-57
2021/11/17 11:42:43;;;;;;;8.07;7.05;;;;;;;20.20;25.62;94885.22;5079276;28;20354;-54
2021/11/17 11:45:10;;;;;;;7.85;7.05;;;;;;;19.83;26.20;94875.75;5093475;28;20082;-60
2021/11/17 11:47:50;;;;;;;7.20;6.50;;;;;;;20.12;25.61;94883.47;5057198;28;20048;-61
2021/11/17 11:50:33;;;;;;;8.23;6.72;;;;;;;19.56;26.28;94877.94;5075729;28;20052;-58
2021/11/17 11:53:03;;;;;;;8.60;7.70;;;;;;;19.52;26.37;94877.03;5076988;28;20446;-52
2021/11/17 11:55:50;;;;;;;9.77;7.00;;;;;;;20.11;25.35;94870.53;5076643;28;20059;-55
2021/11/17 11:58:26;;;;;;;8.65;7.13;;;;;;;19.82;25.89;94869.66;5085912;28;20051;-53
2021/11/17 12:01:05;;;;;;;7.70;6.97;;;;;;;19.77;25.83;94864.56;5090898;28;20044;-59
2021/11/17 12:03:36;;;;;;;9.43;7.68;;;;;;;19.77;26.06;94871.75;5076750;28;20048;-61
2021/11/17 12:06:14;;;;;;;7.38;6.60;;;;;;;19.59;26.12;94874.63;5076389;28;20134;-63
2021/11/17 12:09:33;;;;;;;7.80;7.07;;;;;;;19.67;26.34;94873.75;5058746;28;20051;-53
2021/11/17 12:12:02;;;;;;;10.10;7.10;;;;;;;19.97;25.73;94870.88;5043183;28;20052;-57
2021/11/17 12:14:45;;;;;;;8.23;6.82;;;;;;;19.78;25.77;94873.28;5075906;28;20051;-55
2021/11/17 12:17:28;;;;;;;7.55;6.75;;;;;;;20.65;24.70;94868.34;5089030;28;20434;-56
2021/11/17 12:19:59;;;;;;;8.13;7.00;;;;;;;19.84;25.91;94869.34;5062504;28;20474;-48
2021/11/17 12:22:46;;;;;;;8.85;7.38;;;;;;;19.77;26.14;94866.44;5070671;28;20048;-55
2021/11/17 12:25:17;;;;;;;8.43;7.05;;;;;;;19.66;26.23;94866.91;5074874;28;20414;-61
2021/11/17 12:27:45;;;;;;;9.27;6.90;;;;;;;20.10;25.57;94875.06;5066171;28;20060;-64
2021/11/17 12:30:40;;;;;;;8.95;7.10;;;;;;;19.50;26.47;94855.34;5038602;28;20119;-51
2021/11/17 12:33:18;;;;;;;8.82;7.93;;;;;;;19.60;26.82;94872.75;5055818;28;20091;-59
2021/11/17 12:36:00;;;;;;;11.15;8.85;;;;;;;20.32;25.37;94865.88;5062345;28;20055;-58
2021/11/17 12:38:28;;;;;;;10.10;8.33;;;;;;;19.81;25.84;94856.75;5096263;28;20048;-51
2021/11/17 12:41:08;;;;;;;9.63;7.80;;;;;;;20.25;25.45;94860.31;5091309;28;20286;-53
2021/11/17 12:43:45;;;;;;;8.00;7.20;;;;;;;20.26;25.35;94857.34;5074868;28;20052;-63
2021/11/17 12:46:21;;;;;;;9.18;7.57;;;;;;;19.63;26.30;94856.19;5062588;28;20040;-62
2021/11/17 12:48:55;;;;;;;8.48;7.03;;;;;;;19.93;26.05;94859.38;5079499;28;20063;-59
2021/11/17 12:51:31;;;;;;;9.18;7.82;;;;;;;20.42;25.19;94848.72;5066021;28;20466;-64
2021/11/17 12:54:05;;;;;;;8.02;7.22;;;;;;;19.52;26.28;94858.47;5078031;28;20044;-63
2021/11/17 12:56:46;;;;;;;10.18;7.22;;;;;;;19.33;26.53;94850.25;5096118;28;20055;-63
2021/11/17 12:59:36;;;;;;;8.93;6.95;;;;;;;20.17;25.39;94848.72;5054920;28;20049;-61
2021/11/17 13:02:21;;;;;;;8.82;7.07;;;;;;;18.88;27.34;94860.84;5064177;28;20071;-64
2021/11/17 13:05:18;;;;;;;8.65;7.57;;;;;;;19.85;25.66;94863.69;5094529;28;20051;-62
2021/11/17 13:07:59;;;;;;;8.40;7.57;;;;;;;19.05;27.08;94877.38;5077873;28;20474;-62
2021/11/17 13:10:32;;;;;;;10.98;8.27;;;;;;;19.00;27.24;94866.97;5090167;28;20050;-65
2021/11/17 13:13:13;;;;;;;10.77;7.82;;;;;;;19.26;26.63;94865.94;5068178;28;20447;-62
2021/11/17 13:16:06;;;;;;;10.50;8.20;;;;;;;18.57;27.99;94866.56;5094650;28;20040;-62
2021/11/17 13:18:34;;;;;;;10.05;7.57;;;;;;;19.73;26.36;94862.91;5074566;28;20048;-60
2021/11/17 13:21:38;;;;;;;11.13;7.70;;;;;;;18.91;27.29;94863.63;5058268;28;20052;-58
2021/11/17 13:24:10;;;;;;;7.88;7.10;;;;;;;18.96;27.14;94868.72;5075124;28;20055;-60
2021/11/17 13:26:51;;;;;;;8.40;7.30;;;;;;;18.67;27.91;94866.19;5075063;28;20056;-65
2021/11/17 13:29:32;;;;;;;83.07;73.32;;;;;;;18.52;29.12;94861.47;5055025;28;20055;-63
2021/11/17 13:32:08;;;;;;;11.45;9.55;;;;;;;18.57;27.94;94861.25;5048937;28;20052;-62
2021/11/17 13:34:50;;;;;;;8.27;7.28;;;;;;;18.96;27.49;94850.16;5082171;28;20041;-62
2021/11/17 13:37:34;;;;;;;12.23;7.90;;;;;;;19.04;27.14;94857.28;5055097;28;20363;-63
2021/11/17 13:40:09;;;;;;;11.65;8.93;;;;;;;18.86;27.52;94855.88;5054961;28;20268;-63
2021/11/17 13:42:37;;;;;;;11.38;9.18;;;;;;;19.12;27.60;94850.34;5067430;28;20041;-65
2021/11/17 13:45:19;;;;;;;11.70;9.13;;;;;;;19.27;27.01;94848.94;5054106;28;20048;-61
2021/11/17 13:47:47;;;;;;;11.98;8.82;;;;;;;19.06;27.50;94839.16;5053045;28;20051;-63
2021/11/17 13:50:17;;;;;;;11.25;8.48;;;;;;;19.06;27.33;94849.78;5066779;28;20052;-61
2021/11/17 13:52:46;;;;;;;10.43;8.52;;;;;;;18.61;28.16;94851.56;5073947;28;20044;-65
2021/11/17 13:55:20;;;;;;;9.25;8.25;;;;;;;18.97;27.40;94843.78;5068115;28;20044;-63
2021/11/17 13:57:49;;;;;;;10.07;7.90;;;;;;;18.77;27.99;94847.25;5055175;28;20439;-64
2021/11/17 14:00:19;;;;;;;9.48;7.90;;;;;;;18.70;28.09;94841.69;5054392;28;20447;-60
2021/11/17 14:02:47;;;;;;;11.88;8.10;;;;;;;18.19;28.81;94844.41;5072443;28;20123;-66
2021/11/17 14:05:16;;;;;;;11.98;8.68;;;;;;;18.75;28.02;94846.81;5095023;28;20046;-57
2021/11/17 14:07:43;;;;;;;12.55;8.25;;;;;;;18.41;28.35;94845.94;5094784;28;20339;-55
2021/11/17 14:10:11;;;;;;;9.00;8.07;;;;;;;18.98;27.36;94850.63;5093749;28;20050;-48
2021/11/17 14:12:38;;;;;;;12.93;9.60;;;;;;;18.91;27.41;94845.09;5077999;28;20362;-61
2021/11/17 14:15:07;;;;;;;11.30;9.27;;;;;;;18.46;28.22;94855.56;5066073;28;20045;-63
2021/11/17 14:17:34;;;;;;;11.65;9.60;;;;;;;18.96;27.37;94850.16;5074585;28;20052;-65
2021/11/17 14:20:04;;;;;;;12.73;8.90;;;;;;;19.07;27.26;94845.25;5065209;28;20045;-64
2021/11/17 14:22:31;;;;;;;10.32;8.55;;;;;;;18.46;28.17;94853.69;5073632;28;20059;-59
2021/11/17 14:25:05;;;;;;;12.93;9.40;;;;;;;19.22;27.08;94857.84;5056477;28;20055;-64
2021/11/17 14:27:37;;;;;;;11.52;8.52;;;;;;;18.68;27.64;94857.13;5073408;28;20040;-62
2021/11/17 14:30:10;;;;;;;11.50;9.15;;;;;;;18.88;27.55;94853.69;5073977;28;20048;-59
2021/11/17 14:32:40;;;;;;;13.57;10.70;;;;;;;18.84;27.52;94852.78;5057403;28;20056;-56
2021/11/17 14:35:09;;;;;;;10.90;8.48;;;;;;;18.46;28.15;94853.69;5076445;28;20354;-63
2021/11/17 14:37:36;;;;;;;8.77;7.40;;;;;;;18.72;27.85;94850.09;5094287;28;20058;-58
2021/11/17 14:40:04;;;;;;;9.48;7.72;;;;;;;18.62;27.81;94845.16;5093235;28;20044;-56